עמוד ראשי
METAR-TAF:

METAR-TAF

שדות תעופה :

McKinley Park, אלסקה, ארצות הברית

קו רוחב: 63-44N, קו אורך: 148-55W, גובה: 524מטר

תצפית מזג אוויר נוכחית

הדו"ח נערך לפני 1 שעות ו 6דקות, בשעה 15:56 UTC
רוח רגועה
טמפרטורת 13 צלסיוס
לחות 72%
לחץ 1022 hPa
ראות: 16.1קילומטר
שמיים נקיים

METAR: PAIN 151556Z AUTO 00000KT 10SM CLR 13/08 A3018 RMK AO2 SLP225 T01280083

זמן: 09:02 (17:02 UTC)


TAF: חסר

תצפיות ותחזיות מזג אוויר לגבי יותר מ- 4,000 שדות תעופה ברחבי העולם. דוחות METAR ו- TAF.

התחנות הזמינות מסומנות בנקודות צהובות ואדומות על גבי המפה.

העבר את העכבר לנקודה הצבעונית על מנת לראות את שם התחנה.

לאחר מכן, לחץ כדי לראות את תוכן ואת תחזיות מזג האוויר.

כדי לשנות את המפה: לחץ על הכפתורים הירוקים עם הפלוס השחור כדי להתקרב; על הכפתור הירוק עם המקף כדי להתרחק; או בחיצים הירוקים למפות סמוכות.


METAR-TAF: